Time;durP1;ratioP1;P1;durP2;ratioP2;P2;SDS_P1;SDS_P2;PMS_P1;PMS_P2;Temp;Humidity;BMP_temperature;BMP_pressure;BME280_temperature;BME280_humidity;BME280_pressure;Samples;Min_cycle;Max_cycle;Signal;HPM_P1;HPM_P2
2022/06/25 00:01:44;;;;;;;94.17;66.33;;;;;;;20.47;93.67;100919.72;4991244;28;20746;-73
2022/06/25 00:05:27;;;;;;;97.57;65.17;;;;;;;20.46;94.09;100915.38;4991281;28;20192;-73
2022/06/25 00:06:55;;;;;;;92.83;64.80;;;;;;;20.42;93.45;100910.28;4992053;28;20215;-73
2022/06/25 00:09:20;;;;;;;91.00;64.90;;;;;;;20.37;93.75;100913.00;4989511;28;20286;-73
2022/06/25 00:14:29;;;;;;;89.60;63.30;;;;;;;20.32;93.23;100930.41;4987976;28;20570;-73
2022/06/25 00:16:55;;;;;;;88.93;62.90;;;;;;;20.31;93.14;100940.84;4975998;28;20184;-73
2022/06/25 00:19:20;;;;;;;88.13;64.50;;;;;;;20.27;93.81;100934.84;4986762;28;20189;-73
2022/06/25 00:21:46;;;;;;;98.00;66.30;;;;;;;20.25;94.15;100938.34;4991844;28;20359;-73
2022/06/25 00:24:11;;;;;;;99.13;68.50;;;;;;;20.19;94.47;100941.06;4991319;28;20227;-73
2022/06/25 00:26:37;;;;;;;102.30;70.77;;;;;;;20.12;94.88;100935.13;4987544;28;20592;-73
2022/06/25 00:29:03;;;;;;;107.87;74.47;;;;;;;20.04;95.50;100936.13;4972717;28;20300;-73
2022/06/25 00:31:28;;;;;;;101.60;72.53;;;;;;;20.01;96.32;100939.63;4976667;28;20331;-73
2022/06/25 00:33:54;;;;;;;114.00;75.67;;;;;;;20.00;96.15;100947.47;4982715;28;20195;-73
2022/06/25 00:36:19;;;;;;;104.60;75.10;;;;;;;20.00;96.35;100953.50;4974828;28;20220;-73
2022/06/25 00:38:45;;;;;;;106.27;71.97;;;;;;;20.01;96.17;100952.63;4987322;28;20195;-73
2022/06/25 00:41:12;;;;;;;107.00;76.67;;;;;;;19.98;96.23;100947.47;4976259;28;20623;-73
2022/06/25 00:43:41;;;;;;;104.67;71.33;;;;;;;19.97;96.28;100956.16;4989476;28;20669;-73
2022/06/25 00:46:06;;;;;;;93.43;68.77;;;;;;;19.98;96.22;100955.28;4991559;28;20190;-74
2022/06/25 00:48:32;;;;;;;92.10;63.30;;;;;;;19.96;96.10;100953.59;4992220;28;20195;-73
2022/06/25 00:50:58;;;;;;;81.97;62.37;;;;;;;19.95;95.69;100955.31;4991677;28;20195;-73
2022/06/25 00:53:30;;;;;;;82.70;60.40;;;;;;;19.93;95.76;100956.22;4992012;28;20215;-73
2022/06/25 00:55:58;;;;;;;74.30;57.73;;;;;;;19.93;95.80;100962.28;4990131;28;20204;-73
2022/06/25 00:58:31;;;;;;;64.67;52.03;;;;;;;19.94;94.93;100965.78;4992058;28;20186;-73
2022/06/25 01:00:59;;;;;;;57.53;49.17;;;;;;;19.89;94.76;100972.75;4986753;28;20705;-73
2022/06/25 01:03:26;;;;;;;52.37;45.27;;;;;;;19.86;94.16;100975.44;4971082;28;20216;-73
2022/06/25 01:05:51;;;;;;;51.67;46.07;;;;;;;19.82;94.52;100973.75;4990325;28;20191;-73
2022/06/25 01:08:18;;;;;;;54.87;46.53;;;;;;;19.83;94.12;100970.25;4973934;28;20184;-73
2022/06/25 01:10:44;;;;;;;53.63;44.10;;;;;;;19.79;94.12;100976.38;4988917;28;20188;-73
2022/06/25 01:13:09;;;;;;;48.30;42.40;;;;;;;19.78;93.68;100977.28;4977137;28;20271;-74
2022/06/25 01:15:35;;;;;;;54.53;43.20;;;;;;;19.76;93.92;100989.47;4990148;28;20208;-73
2022/06/25 01:18:00;;;;;;;52.90;45.53;;;;;;;19.75;94.63;100993.78;4975009;28;20192;-73
2022/06/25 01:20:26;;;;;;;54.00;44.90;;;;;;;19.76;94.07;100994.66;4986222;28;20661;-73
2022/06/25 01:22:53;;;;;;;51.17;41.57;;;;;;;19.74;93.93;100992.06;4973184;28;20274;-73
2022/06/25 01:25:19;;;;;;;55.50;46.33;;;;;;;19.66;94.64;100988.72;4985142;28;20235;-72
2022/06/25 01:27:45;;;;;;;54.30;46.53;;;;;;;19.63;94.90;100993.97;4972383;28;20184;-73
2022/06/25 01:30:12;;;;;;;57.60;45.97;;;;;;;19.56;95.43;100991.47;4981884;28;20525;-73
2022/06/25 01:32:38;;;;;;;56.90;46.23;;;;;;;19.55;95.56;100994.97;4986445;28;20223;-73
2022/06/25 01:35:05;;;;;;;52.47;44.27;;;;;;;19.54;95.10;100993.25;4971429;28;20243;-72
2022/06/25 01:37:33;;;;;;;55.97;43.73;;;;;;;19.52;95.04;100995.88;4964915;28;20692;-73
2022/06/25 01:40:00;;;;;;;54.77;45.57;;;;;;;19.49;94.91;100998.50;4986114;28;20581;-73
2022/06/25 01:45:12;;;;;;;53.03;46.03;;;;;;;19.49;94.89;101000.25;4971542;28;20195;-73
2022/06/25 01:47:38;;;;;;;57.03;46.23;;;;;;;19.47;94.96;101008.06;4953878;28;20184;-73
2022/06/25 01:50:06;;;;;;;55.30;47.60;;;;;;;19.44;95.02;101007.25;4954457;28;20193;-73
2022/06/25 01:52:32;;;;;;;61.33;48.93;;;;;;;19.43;94.70;101006.38;4981759;28;20227;-73
2022/06/25 01:54:58;;;;;;;64.90;49.53;;;;;;;19.40;94.71;101023.75;4986346;28;20761;-73
2022/06/25 01:57:23;;;;;;;62.07;50.90;;;;;;;19.36;94.80;101014.28;4970953;28;20341;-73
2022/06/25 01:59:51;;;;;;;60.43;47.20;;;;;;;19.33;94.73;101022.13;4970066;28;20303;-73
2022/06/25 02:02:18;;;;;;;55.27;47.33;;;;;;;19.28;94.73;101018.72;4981728;28;20208;-73
2022/06/25 02:04:44;;;;;;;55.47;48.13;;;;;;;19.26;94.72;101016.13;4989476;28;20657;-73
2022/06/25 02:07:10;;;;;;;55.77;46.20;;;;;;;19.26;94.61;101012.69;4989341;28;20199;-74
2022/06/25 02:09:35;;;;;;;57.97;46.33;;;;;;;19.23;94.41;101013.59;4990306;28;20207;-73
2022/06/25 02:12:01;;;;;;;53.77;44.30;;;;;;;19.21;94.27;101007.50;4985858;28;20211;-73
2022/06/25 02:14:26;;;;;;;50.70;44.10;;;;;;;19.20;94.15;101011.00;4974432;28;20247;-73
2022/06/25 02:16:53;;;;;;;51.57;43.10;;;;;;;19.16;94.09;101009.31;4987956;28;20287;-73
2022/06/25 02:19:18;;;;;;;52.30;41.80;;;;;;;19.21;93.63;101017.06;4970642;28;20189;-73
2022/06/25 02:21:44;;;;;;;50.30;41.90;;;;;;;19.15;94.06;101009.34;4976384;28;20204;-73
2022/06/25 02:24:09;;;;;;;50.07;42.50;;;;;;;19.09;94.93;101004.22;4977482;28;20196;-73
2022/06/25 02:26:35;;;;;;;51.67;44.67;;;;;;;19.08;94.50;101003.38;4971581;28;20192;-73
2022/06/25 02:29:00;;;;;;;51.53;43.63;;;;;;;19.01;94.80;101000.84;4978524;28;20201;-73
2022/06/25 02:31:29;;;;;;;51.20;42.07;;;;;;;18.97;94.37;101007.84;4988532;28;20184;-73
2022/06/25 02:33:54;;;;;;;46.27;40.70;;;;;;;18.95;94.35;100998.34;4973115;28;20206;-73
2022/06/25 02:36:21;;;;;;;51.47;41.90;;;;;;;18.90;93.97;101011.41;4988636;28;20258;-73
2022/06/25 02:38:46;;;;;;;53.53;41.47;;;;;;;18.88;94.15;101015.72;4989202;28;20219;-73
2022/06/25 02:41:12;;;;;;;52.10;44.13;;;;;;;18.87;94.44;101014.00;4984785;28;20187;-73
2022/06/25 02:43:38;;;;;;;52.60;43.50;;;;;;;18.84;94.62;101019.22;4985291;28;20203;-72
2022/06/25 02:46:29;;;;;;;46.47;38.83;;;;;;;18.84;94.25;101018.38;4970253;28;20200;-73
2022/06/25 02:48:55;;;;;;;48.03;40.67;;;;;;;18.86;93.92;101016.63;4969224;28;20195;-73
2022/06/25 02:51:21;;;;;;;47.90;41.20;;;;;;;18.77;94.73;101022.78;4966971;28;20216;-73
2022/06/25 02:53:48;;;;;;;47.93;40.93;;;;;;;18.75;94.76;101028.88;5000132;28;20307;-73
2022/06/25 02:58:58;;;;;;;44.87;38.73;;;;;;;18.61;94.60;101031.59;4969182;28;20198;-73
2022/06/25 03:01:29;;;;;;;48.00;39.73;;;;;;;18.58;94.28;101036.84;4969624;28;20195;-73
2022/06/25 03:03:56;;;;;;;46.07;39.27;;;;;;;18.57;93.89;101039.44;4980970;28;20192;-73
2022/06/25 03:06:22;;;;;;;48.43;40.87;;;;;;;18.52;94.04;101043.81;4953207;28;20184;-73
2022/06/25 03:08:48;;;;;;;46.30;39.23;;;;;;;18.44;94.54;101036.09;4953135;28;20195;-73
2022/06/25 03:11:14;;;;;;;46.77;39.20;;;;;;;18.44;94.38;101030.91;4968940;28;20188;-73
2022/06/25 03:13:41;;;;;;;50.07;39.50;;;;;;;18.44;94.07;101038.69;4974434;28;20188;-73
2022/06/25 03:16:07;;;;;;;45.13;37.47;;;;;;;18.38;93.72;101033.53;4987986;28;20239;-73
2022/06/25 03:18:34;;;;;;;43.37;38.77;;;;;;;18.37;93.59;101031.84;4988750;28;20302;-73
2022/06/25 03:21:09;;;;;;;42.43;36.03;;;;;;;18.29;93.14;101041.38;4989822;28;20183;-73
2022/06/25 03:23:36;;;;;;;40.87;34.77;;;;;;;18.22;93.54;101033.66;4985017;28;20853;-73
2022/06/25 03:26:01;;;;;;;43.03;36.57;;;;;;;18.23;93.74;101038.00;4999389;28;20176;-73
2022/06/25 03:28:27;;;;;;;41.57;34.97;;;;;;;18.24;93.64;101039.72;4969484;28;20191;-73
2022/06/25 03:30:53;;;;;;;40.33;34.67;;;;;;;18.25;93.50;101041.44;4969193;28;20199;-73
2022/06/25 03:33:20;;;;;;;42.90;35.53;;;;;;;18.24;92.76;101034.53;4970556;28;20223;-73
2022/06/25 03:35:52;;;;;;;41.27;34.27;;;;;;;18.25;92.88;101047.50;4989501;28;20631;-73
2022/06/25 03:38:21;;;;;;;42.73;36.00;;;;;;;18.21;92.84;101052.69;4987901;28;20188;-73
2022/06/25 03:40:47;;;;;;;42.93;35.40;;;;;;;18.20;93.06;101051.81;4983796;28;20183;-72
2022/06/25 03:43:16;;;;;;;41.10;35.63;;;;;;;18.17;93.47;101051.88;4987202;28;20593;-70
2022/06/25 03:45:43;;;;;;;42.77;36.57;;;;;;;18.22;93.56;101052.69;4972320;28;20707;-72
2022/06/25 03:48:09;;;;;;;41.57;35.57;;;;;;;18.24;93.20;101050.09;4987766;28;20180;-73
2022/06/25 03:50:49;;;;;;;39.03;34.93;;;;;;;18.23;93.13;101054.41;4987886;28;20797;-73
2022/06/25 03:53:14;;;;;;;42.53;35.77;;;;;;;18.24;93.12;101050.09;4994134;28;20215;-73
2022/06/25 03:55:40;;;;;;;41.60;36.57;;;;;;;18.31;93.56;101046.56;4987898;28;20582;-74
2022/06/25 03:58:06;;;;;;;41.33;36.60;;;;;;;18.35;94.13;101037.91;4972215;28;20625;-73
2022/06/25 04:00:33;;;;;;;42.13;36.13;;;;;;;18.41;94.39;101046.50;4963541;28;20188;-73
2022/06/25 04:03:00;;;;;;;41.60;35.43;;;;;;;18.41;95.19;101043.91;4990983;28;20266;-73
2022/06/25 04:05:29;;;;;;;42.93;35.33;;;;;;;18.49;94.94;101046.44;4992695;28;20192;-73
2022/06/25 04:08:11;;;;;;;38.37;34.27;;;;;;;18.52;95.16;101051.59;4991482;28;20237;-73
2022/06/25 04:10:37;;;;;;;36.93;32.20;;;;;;;18.56;95.09;101054.13;4991147;28;20576;-73
2022/06/25 04:13:04;;;;;;;41.23;34.27;;;;;;;18.60;94.83;101055.81;4971915;28;20315;-73
2022/06/25 04:15:33;;;;;;;37.07;32.63;;;;;;;18.58;94.75;101059.31;4984623;28;20215;-73
2022/06/25 04:17:58;;;;;;;38.47;34.20;;;;;;;18.59;94.79;101061.91;4991145;28;20192;-73
2022/06/25 04:20:24;;;;;;;37.10;32.70;;;;;;;18.60;94.96;101063.59;4991403;28;20179;-73
2022/06/25 04:22:50;;;;;;;37.03;32.47;;;;;;;18.63;94.65;101071.38;4985958;28;20296;-72
2022/06/25 04:25:15;;;;;;;36.77;32.23;;;;;;;18.65;94.60;101066.16;4982886;28;20191;-73
2022/06/25 04:30:26;;;;;;;36.83;32.73;;;;;;;18.74;94.22;101066.91;4991282;28;20196;-73
2022/06/25 04:32:53;;;;;;;38.20;32.80;;;;;;;18.75;93.96;101068.63;4987181;28;20220;-73
2022/06/25 04:35:22;;;;;;;38.50;33.43;;;;;;;18.78;93.72;101059.97;4982242;28;20212;-73
2022/06/25 04:37:49;;;;;;;39.17;32.97;;;;;;;18.80;93.72;101064.25;4983321;28;20195;-73
2022/06/25 04:40:18;;;;;;;39.83;33.07;;;;;;;18.81;93.99;101072.91;4973162;28;20212;-74
2022/06/25 04:42:47;;;;;;;39.43;31.77;;;;;;;18.84;94.20;101078.09;4971413;28;20328;-72
2022/06/25 04:45:12;;;;;;;42.33;35.03;;;;;;;18.91;93.91;101077.13;4972279;28;20185;-73
2022/06/25 04:48:01;;;;;;;37.00;32.37;;;;;;;18.94;93.96;101075.38;4976065;28;20195;-73
2022/06/25 04:51:02;;;;;;;41.40;34.57;;;;;;;19.00;94.14;101088.28;4993141;28;20199;-73
2022/06/25 04:53:28;;;;;;;35.77;31.70;;;;;;;19.10;93.91;101095.09;4989405;28;20224;-73
2022/06/25 04:55:53;;;;;;;35.87;31.97;;;;;;;19.19;93.94;101096.72;4970965;28;20204;-73
2022/06/25 04:58:19;;;;;;;35.47;31.13;;;;;;;19.24;94.16;101098.41;4972656;28;20283;-73
2022/06/25 05:01:19;;;;;;;36.50;31.30;;;;;;;19.30;93.83;101097.50;4990496;28;20196;-73
2022/06/25 05:03:45;;;;;;;37.60;30.47;;;;;;;19.34;94.02;101101.78;4987372;28;20198;-73
2022/06/25 05:06:12;;;;;;;35.63;28.97;;;;;;;19.45;93.26;101102.50;4971712;28;20266;-73
2022/06/25 05:08:37;;;;;;;33.93;28.83;;;;;;;19.51;92.63;101107.59;4970948;28;20637;-73
2022/06/25 05:11:04;;;;;;;30.87;27.77;;;;;;;19.54;92.38;101113.66;4971141;28;20279;-73
2022/06/25 05:13:30;;;;;;;33.90;30.33;;;;;;;19.57;92.60;101108.38;4970295;28;20315;-73
2022/06/25 05:15:56;;;;;;;35.17;30.33;;;;;;;19.59;92.21;101111.84;4974291;28;20212;-73
2022/06/25 05:18:21;;;;;;;33.83;30.03;;;;;;;19.54;92.56;101112.78;4971584;28;20172;-73
2022/06/25 05:20:47;;;;;;;35.57;31.73;;;;;;;19.60;92.46;101115.28;4970888;28;20294;-73
2022/06/25 05:23:13;;;;;;;36.87;31.73;;;;;;;19.68;91.94;101119.53;4954145;28;20212;-74
2022/06/25 05:25:39;;;;;;;33.83;30.20;;;;;;;19.75;91.39;101113.34;4971865;28;20208;-74
2022/06/25 05:28:05;;;;;;;34.17;30.57;;;;;;;19.83;91.29;101126.22;4970690;28;20200;-74
2022/06/25 05:30:32;;;;;;;31.47;28.07;;;;;;;19.86;90.85;101121.00;4970461;28;20248;-74
2022/06/25 05:32:58;;;;;;;29.30;26.20;;;;;;;19.91;89.70;101132.19;4971949;28;20271;-74
2022/06/25 05:35:24;;;;;;;30.77;27.17;;;;;;;19.81;90.98;101135.81;4954104;28;20299;-73
2022/06/25 05:37:50;;;;;;;34.43;28.60;;;;;;;19.76;91.10;101141.06;4971656;28;20306;-74
2022/06/25 05:40:16;;;;;;;32.13;28.27;;;;;;;19.89;90.53;101154.72;4969849;28;20203;-74
2022/06/25 05:42:41;;;;;;;30.53;27.50;;;;;;;19.98;89.88;101147.69;4974104;28;20216;-73
2022/06/25 05:45:07;;;;;;;31.57;28.17;;;;;;;19.93;90.76;101148.63;4970958;28;20185;-73
2022/06/25 05:47:33;;;;;;;32.17;27.30;;;;;;;20.03;91.03;101147.63;4971013;28;20846;-73
2022/06/25 05:49:59;;;;;;;31.63;28.17;;;;;;;20.12;89.99;101152.72;4971684;28;20191;-73
2022/06/25 05:52:24;;;;;;;29.80;26.70;;;;;;;20.22;90.11;101155.16;4975532;28;20203;-73
2022/06/25 05:54:50;;;;;;;31.73;28.17;;;;;;;20.30;88.96;101160.25;4990840;28;20207;-73
2022/06/25 05:57:15;;;;;;;31.43;28.03;;;;;;;20.38;89.16;101164.47;4990313;28;20211;-73
2022/06/25 05:59:41;;;;;;;28.33;25.53;;;;;;;20.43;89.12;101165.25;4989505;28;20200;-73
2022/06/25 06:02:07;;;;;;;30.40;27.07;;;;;;;20.45;88.90;101165.25;4987976;28;20292;-73
2022/06/25 06:04:32;;;;;;;28.93;25.90;;;;;;;20.61;88.36;101159.75;4969696;28;20188;-73
2022/06/25 06:06:59;;;;;;;26.97;24.07;;;;;;;20.90;87.54;101167.09;4971193;28;20199;-73
2022/06/25 06:09:27;;;;;;;27.93;25.03;;;;;;;21.13;86.55;101175.34;4969510;28;20191;-74
2022/06/25 06:11:54;;;;;;;27.03;24.07;;;;;;;21.06;86.24;101172.00;4971250;28;20614;-74
2022/06/25 06:14:20;;;;;;;26.07;23.47;;;;;;;21.10;86.26;101172.81;4969243;28;20188;-73
2022/06/25 06:16:46;;;;;;;25.03;22.53;;;;;;;21.44;85.10;101172.16;4970458;28;20210;-73
2022/06/25 06:19:11;;;;;;;21.70;19.50;;;;;;;21.79;84.60;101174.94;4970826;28;20205;-73
2022/06/25 06:21:37;;;;;;;19.73;17.63;;;;;;;22.03;83.07;101184.00;4969752;28;20243;-73
2022/06/25 06:24:02;;;;;;;19.50;17.43;;;;;;;22.17;81.14;101174.09;4971412;28;20255;-73
2022/06/25 06:26:28;;;;;;;17.73;15.97;;;;;;;22.39;80.58;101172.72;4970332;28;20193;-74
2022/06/25 06:28:53;;;;;;;16.97;14.83;;;;;;;22.51;79.10;101174.22;4970906;28;20184;-73
2022/06/25 06:31:19;;;;;;;16.77;14.93;;;;;;;22.64;78.29;101179.09;4969189;28;20729;-74
2022/06/25 06:33:44;;;;;;;16.47;14.77;;;;;;;22.74;77.83;101177.97;4985095;28;20673;-73
2022/06/25 06:36:12;;;;;;;15.63;14.17;;;;;;;22.84;77.24;101181.22;4989534;28;20274;-74
2022/06/25 06:38:38;;;;;;;15.23;13.63;;;;;;;22.87;76.80;101187.22;4990231;28;20180;-74
2022/06/25 06:41:04;;;;;;;16.87;15.10;;;;;;;22.87;76.28;101183.72;4989965;28;20195;-73
2022/06/25 06:43:29;;;;;;;14.43;13.00;;;;;;;23.19;75.88;101182.06;4978443;28;20315;-73
2022/06/25 06:45:55;;;;;;;14.17;12.87;;;;;;;23.35;75.69;101185.13;4990522;28;20184;-73
2022/06/25 06:48:20;;;;;;;14.60;13.07;;;;;;;23.48;74.66;101187.34;4989560;28;20195;-73
2022/06/25 06:50:46;;;;;;;13.48;12.30;;;;;;;23.60;73.56;101193.97;4989073;28;20670;-73
2022/06/25 06:53:11;;;;;;;13.07;11.93;;;;;;;23.86;73.22;101187.13;4971989;28;20903;-73
2022/06/25 06:55:36;;;;;;;12.45;10.90;;;;;;;23.97;71.79;101190.28;4971855;28;20563;-73
2022/06/25 06:58:02;;;;;;;11.07;9.98;;;;;;;24.12;70.31;101186.38;4970434;28;20593;-74
2022/06/25 07:00:27;;;;;;;12.15;10.85;;;;;;;24.20;69.67;101187.84;4970208;28;20184;-74
2022/06/25 07:02:53;;;;;;;10.77;9.68;;;;;;;24.43;69.65;101193.22;4972707;28;20247;-74
2022/06/25 07:05:18;;;;;;;10.30;9.23;;;;;;;24.56;68.67;101196.31;4970104;28;20291;-74
2022/06/25 07:07:47;;;;;;;9.63;8.68;;;;;;;24.61;67.88;101192.66;5001431;28;20196;-73
2022/06/25 07:10:13;;;;;;;7.85;7.05;;;;;;;24.68;66.17;101202.03;4970084;28;20180;-73
2022/06/25 07:12:38;;;;;;;7.75;6.50;;;;;;;24.65;66.63;101201.28;4973537;28;20211;-74
2022/06/25 07:15:04;;;;;;;8.23;6.68;;;;;;;24.50;65.73;101206.97;4990124;28;20707;-74
2022/06/25 07:17:30;;;;;;;6.68;6.05;;;;;;;24.50;65.68;101201.75;4988305;28;20284;-74
2022/06/25 07:19:55;;;;;;;7.75;6.80;;;;;;;24.46;64.43;101198.38;4989921;28;20681;-74
2022/06/25 07:22:21;;;;;;;7.38;6.68;;;;;;;25.03;63.71;101200.84;4989240;28;20704;-73
2022/06/25 07:24:46;;;;;;;7.50;6.80;;;;;;;25.20;63.53;101195.91;4989729;28;20176;-74
2022/06/25 07:27:12;;;;;;;7.05;6.40;;;;;;;25.25;62.75;101204.47;4981912;28;20187;-74
2022/06/25 07:29:37;;;;;;;8.00;6.05;;;;;;;25.40;62.08;101201.31;4974145;28;20189;-74
2022/06/25 07:32:03;;;;;;;6.80;6.20;;;;;;;25.59;61.13;101199.75;4973974;28;20211;-74
2022/06/25 07:34:30;;;;;;;6.80;5.90;;;;;;;25.65;60.25;101196.91;4973604;28;20196;-74
2022/06/25 07:36:55;;;;;;;5.40;4.90;;;;;;;25.72;59.96;101194.00;5003339;28;20200;-73
2022/06/25 07:39:21;;;;;;;7.82;5.18;;;;;;;26.04;60.02;101191.06;4980898;28;20191;-73
2022/06/25 07:41:46;;;;;;;6.78;6.00;;;;;;;26.08;59.21;101199.66;4993276;28;20540;-74
2022/06/25 07:44:12;;;;;;;6.30;5.70;;;;;;;26.22;59.41;101198.22;4982526;28;20196;-74
2022/06/25 07:46:38;;;;;;;5.90;5.40;;;;;;;26.34;58.42;101204.78;4972372;28;20223;-74
2022/06/25 07:49:04;;;;;;;5.68;5.18;;;;;;;26.39;58.67;101197.56;4972285;28;20271;-74
2022/06/25 07:54:14;;;;;;;5.53;5.05;;;;;;;26.72;58.19;101204.13;4983877;28;20222;-74
2022/06/25 07:56:39;;;;;;;7.13;5.07;;;;;;;26.86;57.36;101201.78;4992469;28;20298;-73
2022/06/25 07:59:05;;;;;;;5.90;4.80;;;;;;;27.07;57.44;101206.97;4993371;28;20874;-74
2022/06/25 08:01:30;;;;;;;5.10;4.60;;;;;;;27.13;56.26;101196.19;4991088;28;20680;-74
2022/06/25 08:03:56;;;;;;;7.32;5.22;;;;;;;27.12;56.05;101201.53;4985381;28;20192;-74
2022/06/25 08:06:22;;;;;;;4.93;4.53;;;;;;;27.23;55.00;101202.81;4973898;28;20180;-74
2022/06/25 08:08:47;;;;;;;4.70;4.28;;;;;;;27.30;53.82;101204.25;4973513;28;20260;-74
2022/06/25 08:11:13;;;;;;;4.63;3.85;;;;;;;27.56;53.63;101197.84;5004662;28;20234;-74
2022/06/25 08:13:38;;;;;;;4.22;3.80;;;;;;;27.60;52.74;101204.69;5004122;28;20283;-74
2022/06/25 08:16:05;;;;;;;4.00;3.65;;;;;;;27.77;53.02;101210.88;4980250;28;20219;-74
2022/06/25 08:18:31;;;;;;;5.50;3.90;;;;;;;27.76;52.95;101205.72;4992078;28;20198;-74
2022/06/25 08:20:56;;;;;;;5.80;4.90;;;;;;;27.60;52.23;101216.06;4991338;28;20187;-74
2022/06/25 08:23:22;;;;;;;4.93;3.90;;;;;;;27.90;51.63;101211.25;4990648;28;20249;-74
2022/06/25 08:25:47;;;;;;;5.35;3.88;;;;;;;28.07;51.49;101213.94;4986782;28;20185;-74
2022/06/25 08:28:13;;;;;;;4.45;4.00;;;;;;;28.11;51.67;101207.59;4977950;28;20212;-74
2022/06/25 08:30:41;;;;;;;6.03;3.90;;;;;;;28.37;50.50;101208.06;4972825;28;20215;-74
2022/06/25 08:33:07;;;;;;;5.07;3.90;;;;;;;28.47;50.56;101205.88;4973954;28;20892;-73
2022/06/25 08:35:32;;;;;;;4.45;4.05;;;;;;;28.72;50.71;101196.69;4972357;28;20220;-74
2022/06/25 08:37:58;;;;;;;5.40;4.93;;;;;;;28.26;49.42;101196.31;4972682;28;20231;-74
2022/06/25 08:40:24;;;;;;;5.80;3.90;;;;;;;28.56;50.14;101203.63;4971752;28;20752;-74
2022/06/25 08:42:49;;;;;;;4.43;3.85;;;;;;;28.79;50.09;101192.81;4980593;28;20295;-74
2022/06/25 08:45:18;;;;;;;4.50;3.80;;;;;;;29.05;49.13;101196.81;4991895;28;20218;-74
2022/06/25 08:47:49;;;;;;;5.05;3.63;;;;;;;29.20;48.80;101201.31;4990670;28;20196;-74
2022/06/25 08:50:17;;;;;;;4.05;3.65;;;;;;;28.99;47.70;101200.63;4992200;28;20220;-74
2022/06/25 08:52:48;;;;;;;5.07;4.50;;;;;;;29.20;46.91;101201.31;4984363;28;20236;-74
2022/06/25 08:55:25;;;;;;;4.10;3.70;;;;;;;29.46;47.17;101199.03;4972614;28;20213;-74
2022/06/25 08:57:51;;;;;;;4.97;4.10;;;;;;;29.50;46.33;101200.56;4971921;28;20235;-74
2022/06/25 09:00:16;;;;;;;5.68;4.60;;;;;;;29.80;45.52;101208.69;4973931;28;20228;-74
2022/06/25 09:02:42;;;;;;;5.22;4.78;;;;;;;29.20;46.34;101206.59;4971929;28;20231;-73
2022/06/25 09:05:08;;;;;;;5.57;4.05;;;;;;;29.39;47.17;101200.25;4972746;28;20275;-74
2022/06/25 09:07:34;;;;;;;4.88;4.47;;;;;;;29.67;46.35;101203.22;5004010;28;20204;-74
2022/06/25 09:10:00;;;;;;;5.18;4.03;;;;;;;29.90;45.43;101199.31;4983740;28;20198;-74
2022/06/25 09:12:26;;;;;;;4.30;4.00;;;;;;;30.07;44.72;101199.25;4991013;28;20238;-74
2022/06/25 09:14:51;;;;;;;5.57;5.18;;;;;;;30.26;44.32;101199.97;4991473;28;20701;-74
2022/06/25 09:17:17;;;;;;;5.20;4.35;;;;;;;30.62;44.11;101204.97;4987581;28;21750;-74
2022/06/25 09:19:50;;;;;;;6.38;4.45;;;;;;;30.70;44.22;101198.31;4979931;28;20196;-74
2022/06/25 09:22:19;;;;;;;4.90;4.00;;;;;;;30.80;44.45;101196.81;4991375;28;20270;-74
2022/06/25 09:24:50;;;;;;;5.20;4.20;;;;;;;30.68;44.12;101199.34;4990997;28;20195;-74
2022/06/25 09:27:19;;;;;;;4.95;4.43;;;;;;;31.11;43.92;101190.59;4991569;28;20198;-74
2022/06/25 09:29:48;;;;;;;5.07;4.68;;;;;;;30.62;42.73;101195.25;4982567;28;20539;-74
2022/06/25 09:32:14;;;;;;;3.95;3.65;;;;;;;31.03;43.15;101188.38;4971350;28;20246;-74
2022/06/25 09:34:40;;;;;;;4.70;4.30;;;;;;;30.54;42.62;101196.59;4971655;28;20222;-74
2022/06/25 09:37:26;;;;;;;5.53;4.53;;;;;;;30.01;45.04;101189.88;4971518;28;20771;-74
2022/06/25 09:39:55;;;;;;;4.95;4.22;;;;;;;29.52;45.34;101196.06;4980928;28;20854;-74
2022/06/25 09:42:28;;;;;;;4.43;3.97;;;;;;;29.41;45.70;101187.84;4990645;28;20305;-74
2022/06/25 09:45:06;;;;;;;6.20;4.50;;;;;;;29.35;46.79;101195.25;4974619;28;20271;-74
2022/06/25 09:47:36;;;;;;;5.40;4.90;;;;;;;29.20;47.66;101204.78;4971036;28;20185;-74
2022/06/25 09:50:13;;;;;;;4.82;4.32;;;;;;;29.23;47.38;101190.59;4984360;28;20196;-74
2022/06/25 09:52:55;;;;;;;9.38;3.97;;;;;;;30.17;45.84;101185.44;4989460;28;20214;-74
2022/06/25 09:55:23;;;;;;;4.45;4.05;;;;;;;30.87;45.91;101192.03;4990598;28;20231;-74
2022/06/25 09:57:50;;;;;;;5.75;4.50;;;;;;;31.11;44.16;101185.31;4990483;28;20207;-74
2022/06/25 10:00:17;;;;;;;5.20;4.47;;;;;;;31.38;44.25;101187.16;4971627;28;20187;-74
2022/06/25 10:02:45;;;;;;;4.55;4.13;;;;;;;31.71;43.43;101185.06;5002553;28;20234;-74
2022/06/25 10:05:11;;;;;;;6.53;5.13;;;;;;;31.20;42.98;101188.25;4969621;28;20196;-74
2022/06/25 10:10:22;;;;;;;5.50;5.10;;;;;;;30.29;44.36;101188.38;4988455;28;20285;-73
2022/06/25 10:12:49;;;;;;;5.78;4.53;;;;;;;31.38;43.36;101191.59;4989381;28;20574;-74
2022/06/25 10:15:19;;;;;;;5.60;5.10;;;;;;;31.55;42.40;101191.41;4988769;28;20901;-74
2022/06/25 10:17:47;;;;;;;5.25;4.75;;;;;;;31.74;41.38;101184.03;4990432;28;20190;-74
2022/06/25 10:20:14;;;;;;;4.75;4.35;;;;;;;32.00;42.15;101188.59;4972479;28;20217;-74
2022/06/25 10:22:41;;;;;;;4.65;4.25;;;;;;;32.33;40.71;101184.66;4970681;28;20617;-74
2022/06/25 10:25:12;;;;;;;5.47;5.05;;;;;;;32.28;40.92;101181.44;4971212;28;20596;-74
2022/06/25 10:28:04;;;;;;;4.65;4.28;;;;;;;31.59;41.18;101183.22;4978952;28;20183;-74
2022/06/25 10:30:44;;;;;;;5.85;5.00;;;;;;;31.72;42.24;101178.00;4991904;28;20214;-74
2022/06/25 10:33:11;;;;;;;4.85;4.30;;;;;;;32.13;40.15;101176.25;4988681;28;20574;-74
2022/06/25 10:35:39;;;;;;;5.57;5.07;;;;;;;31.06;40.71;101168.81;4990259;28;20310;-74
2022/06/25 10:38:09;;;;;;;5.00;4.60;;;;;;;30.61;42.34;101179.44;4984406;28;20189;-74
2022/06/25 10:42:58;;;;;;;4.30;3.90;;;;;;;30.79;42.47;101175.78;4970880;28;20184;-74
2022/06/25 10:43:49;;;;;;;4.65;4.25;;;;;;;30.30;42.20;101184.78;4970209;28;20208;-74
2022/06/25 10:46:24;;;;;;;5.05;4.15;;;;;;;30.05;42.11;101174.69;4970816;28;20189;-74
2022/06/25 10:49:17;;;;;;;5.05;4.10;;;;;;;29.76;42.47;101176.28;4969139;28;20266;-74
2022/06/25 10:51:48;;;;;;;3.38;3.08;;;;;;;29.86;42.51;101176.63;4970723;28;20204;-73
2022/06/25 10:54:22;;;;;;;3.65;3.00;;;;;;;30.51;42.27;101171.19;4970556;28;20196;-73
2022/06/25 10:56:50;;;;;;;3.00;2.63;;;;;;;30.75;40.74;101167.13;4985655;28;20657;-73
2022/06/25 10:59:46;;;;;;;5.05;3.13;;;;;;;31.35;39.16;101165.31;4990282;28;20195;-74
2022/06/25 11:02:20;;;;;;;3.72;2.88;;;;;;;31.70;39.25;101163.97;4989218;28;20219;-74
2022/06/25 11:04:52;;;;;;;3.33;3.00;;;;;;;31.11;40.33;101166.78;4994218;28;20176;-74
2022/06/25 11:07:26;;;;;;;5.00;3.38;;;;;;;31.18;39.37;101168.97;4973926;28;20191;-74
2022/06/25 11:09:53;;;;;;;3.65;2.72;;;;;;;30.45;39.86;101171.53;4974800;28;20188;-73
2022/06/25 11:12:19;;;;;;;6.15;5.57;;;;;;;30.21;39.79;101170.28;4973880;28;20227;-73
2022/06/25 11:14:50;;;;;;;3.65;3.35;;;;;;;30.24;40.35;101172.75;4973068;28;20235;-73
2022/06/25 11:17:15;;;;;;;3.53;3.22;;;;;;;31.10;40.05;101165.03;4992443;28;20198;-74
2022/06/25 11:19:41;;;;;;;3.30;3.00;;;;;;;31.25;39.05;101162.38;4993879;28;20187;-74
2022/06/25 11:22:07;;;;;;;3.30;2.58;;;;;;;31.83;39.10;101167.59;4994168;28;20203;-74
2022/06/25 11:24:33;;;;;;;2.45;2.25;;;;;;;32.13;40.13;101163.81;4992678;28;20599;-74
2022/06/25 11:29:47;;;;;;;2.97;2.40;;;;;;;32.47;39.08;101168.69;4973898;28;20263;-74
2022/06/25 11:32:15;;;;;;;3.03;2.33;;;;;;;32.67;37.75;101162.91;4974336;28;20903;-74
2022/06/25 11:34:41;;;;;;;3.92;2.25;;;;;;;32.08;38.00;101165.09;4973838;28;20198;-74
2022/06/25 11:37:17;;;;;;;2.85;2.30;;;;;;;32.51;39.48;101156.91;4974200;28;20192;-74